Tiempo atmosférico en la estación meteorológica de Salamanca, Salamanca (775 m.)



Fecha
DESCASC
Temp. máxima en grados centígrados (hora)
DESCASC
Temp. mínima en grados centígrados (hora)
DESCASC
Temp. media en grados centígrados
DESCASC
Racha de viento máxima en m/sg (hora)
DESCASC
Velocidad máxima media en intervalos de 10 minutos(hora)
DESCASC
Precipitaciones diarias en mm
DESCASC
Precipitaciones de 00:00 a 06:00 en mm
DESCASC
Precipitaciones de 06:00 a 12:00 en mm
DESCASC
Precipitaciones de 12:00 a 18:00 en mm
DESCASC
Precipitaciones de 18:00 a 24:00 en mm
DESCASC
02-08-2020 30.3 (18:40) 16.4 (08:00) 23.3 6.39 (15:10) 2.22 (09:40) 0 0 0 0 0
01-08-2020 33.6 (18:00) 18.3 (08:10) 25.9 9.17 (17:30) 3.61 (16:20) 0 0 0 0 0
31-07-2020 36.1 (17:40) 18.3 (07:30) 27.2 8.61 (15:10) 4.17 (14:30) 0 0 0 0 0
30-07-2020 35.7 (17:30) 19.4 (00:00) 27.6 11.67 (16:20) 4.72 (16:20) 0 0 0 0 0
29-07-2020 37.2 (18:50) 17.9 (00:00) 27.6 6.39 (03:00) 2.78 (03:30) 0 0 0 0 0
28-07-2020 34.9 (18:50) 19.7 (07:40) 27.3 6.67 (23:00) 2.78 (08:00) 0 0 0 0 0
27-07-2020 38.1 (17:00) 17.7 (00:00) 27.9 8.33 (16:30) 3.61 (17:50) 0 0 0 0 0
26-07-2020 35.6 (19:00) 16.7 (00:00) 26.1 6.67 (17:30) 2.5 (17:10) 0 0 0 0 0
25-07-2020 34.6 (17:00) 17.6 (07:50) 26.1 8.06 (18:20) 3.89 (19:10) 0 0 0 0 0
24-07-2020 33.7 (17:50) 18.4 (00:00) 26.1 5.83 (13:30) 2.22 (12:30) 0 0 0 0 0
23-07-2020 34.7 (17:50) 19.6 (00:00) 27.2 7.78 (21:10) 3.33 (19:00) 0 0 0 0 0
22-07-2020 33.5 (19:20) 18.1 (07:40) 25.8 6.94 (00:20) 2.78 (13:50) 0.7 0.6 0.1 0 0
21-07-2020 30.8 (14:50) 16.9 (00:00) 23.8 8.61 (17:10) 4.17 (17:20) 0 0 0 0 0
20-07-2020 36 (18:30) 17.9 (07:20) 26.9 8.89 (14:30) 3.61 (15:10) 0 0 0 0 0
19-07-2020 35.7 (17:20) 16.1 (00:00) 25.9 9.17 (16:10) 4.17 (13:40) 0 0 0 0 0
18-07-2020 34.4 (19:30) 13.7 (00:00) 24.1 6.11 (17:40) 2.5 (17:40) 0 0 0 0 0
17-07-2020 33.4 (18:40) 15.4 (00:00) 24.4 7.5 (13:10) 3.33 (12:00) 0 0 0 0 0
16-07-2020 33.5 (18:20) 15.2 (00:00) 24.3 6.94 (22:50) 3.33 (22:50) 0 0 0 0 0
15-07-2020 31.5 (18:40) 13.3 (07:20) 22.4 8.89 (10:10) 4.17 (09:50) 0 0 0 0 0
14-07-2020 31.5 (17:50) 14.9 (00:00) 23.2 7.5 (20:50) 3.61 (20:50) 0 0 0 0 0
13-07-2020 32.1 (18:20) 15.9 (07:40) 24 7.22 (18:30) 2.78 (12:20) 0 0 0 0 0
12-07-2020 29.3 (15:50) 17.9 (07:10) 23.6 8.61 (17:40) 3.61 (10:30) 1.9 0 0 1.8 0.1
11-07-2020 35.1 (18:10) 15.3 (07:30) 25.2 13.61 (22:40) 6.11 (22:40) 0 0 0 0 0
10-07-2020 33.1 (18:50) 17 (00:00) 25 7.5 (16:00) 3.06 (12:40) 0 0 0 0 0
09-07-2020 34.2 (18:10) 17.4 (07:50) 25.8 10.83 (20:50) 4.17 (21:00) 0 0 0 0 0
08-07-2020 36.4 (16:10) 19.9 (07:50) 28.2 10.28 (19:10) 4.17 (13:50) 0 0 0 0 0

Gráficas

Temp. máximas Temp. mínimas Temp. medias Precipitaciones Rachas de viento máximas Velocidades máximas media en intervalos de 10 minutos

Datos horarios

Fecha y hora oficial Temperatura (ºC) Velocidad del viento (km/h) Dirección del viento Racha (km/h) Dirección de racha Precipitación (mm) Presión (hPa) Tendencia (hPa) Humedad (%)
2020-08-06 23:00:00 27.8 0 Calma 5 Sudoeste 0 926.1 1.4 40
2020-08-06 22:00:00 30.9 4 Sur 15 Sur 0 925.5 0.9 34
2020-08-06 21:00:00 33.4 8 Sudoeste 25 Sur 0 925.2 0.7 33
2020-08-06 20:00:00 35 12 Sur 28 Sur 0 924.7 -- 32
2020-08-06 19:00:00 36.3 9 Sudoeste 28 Sur 0 924.6 -- 30
2020-08-06 18:00:00 36.7 13 Sur 28 Sur 0 924.5 -- 29
2020-08-06 17:00:00 37.4 2 Sur 27 Sur 0 924.5 -- 31
2020-08-06 16:00:00 36.7 3 Sur 26 Sur 0 924.9 -- 32
2020-08-06 15:00:00 35.3 3 Oeste 23 Sudeste 0 925.1 -- 32
2020-08-06 14:00:00 35.3 3 Sudeste 15 Sur 0 925.3 -- 33
2020-08-06 13:00:00 32.8 4 Nordeste 15 Este 0 925.6 -- 39
2020-08-06 12:00:00 31.2 7 Este 13 Este 0 925.8 -- 40
2020-08-06 11:00:00 27.8 5 Este 10 Este 0 926.2 -- 47
2020-08-06 10:00:00 23.6 5 Este 9 Este 0 926.2 -- 56
2020-08-06 09:00:00 20.7 5 Este 8 Este 0 926 -- 61
2020-08-06 08:00:00 18.7 5 Este 7 Este 0 925.7 -- 68
2020-08-06 07:00:00 18.8 2 Este 7 Este 0 925.2 -- 66
2020-08-06 06:00:00 18.9 4 Este 9 Nordeste 0 925 -- 68
2020-08-06 05:00:00 19.6 4 Este 5 Este 0 924.9 -- 68
2020-08-06 04:00:00 20.2 3 Este 7 Este 0 925 -- 64
2020-08-06 03:00:00 20.6 5 Este 8 Este 0 925 -- 64
2020-08-06 02:00:00 22 2 Este 6 Este 0 925.4 -- 62
2020-08-06 01:00:00 23.3 3 Este 4 Este 0 925.2 -- 55
2020-08-06 00:00:00 24.6 0 Calma 9 Este 0 925.1 -- 46
2020-08-05 23:00:00 26.6 5 Este 9 Este 0 924.9 -- 41
2020-08-05 22:00:00 28.7 3 Nordeste 8 Nordeste 0 924.2 -- 39
2020-08-05 21:00:00 31.4 2 Este 15 Este 0 923.8 -- 33
2020-08-05 20:00:00 33.4 3 Norte 17 Nordeste 0 923.6 -- 29
2020-08-05 19:00:00 34.9 5 Sudoeste 12 Sudoeste 0 923.7 -- 29
2020-08-05 18:00:00 34.7 4 Sudoeste 16 Sudoeste 0 923.9 -- 29
2020-08-05 17:00:00 33.9 0 Calma 15 Este 0 924.3 -- 30
2020-08-05 16:00:00 33 3 Sudoeste 15 Sudeste 0 924.9 -- 31
2020-08-05 15:00:00 32.8 3 Este 17 Sudeste 0 925.1 -- 32
2020-08-05 14:00:00 31.2 5 Este 18 Este 0 925.6 -- 35
2020-08-05 13:00:00 30 6 Este 19 Sudeste 0 925.9 -- 36
2020-08-05 12:00:00 28.7 5 Este 13 Este 0 926.2 -- 37
2020-08-05 11:00:00 25.3 6 Nordeste 14 Nordeste 0 926.4 -- 47
2020-08-05 10:00:00 21.7 6 Este 12 Este 0 926.5 -- 58
2020-08-05 09:00:00 18 4 Este 8 Este 0 926.4 -- 65
2020-08-05 08:00:00 16.2 4 Este 6 Este 0 926.1 -- 68
2020-08-05 07:00:00 16.4 4 Este 11 Este 0 925.8 -- 68
2020-08-05 06:00:00 17.2 3 Este 6 Este 0 925.8 -- 68
2020-08-05 05:00:00 17.5 4 Este 7 Sudeste 0 925.9 -- 66
2020-08-05 04:00:00 18 4 Este 15 Nordeste 0 926.2 -- 64
2020-08-05 03:00:00 19.1 5 Nordeste 12 Este 0 926.4 -- 56
2020-08-05 02:00:00 20.1 4 Este 10 Este 0 926.8 -- 55
2020-08-05 01:00:00 21.5 4 Este 7 Este 0 926.6 -- 51
2020-08-05 00:00:00 23 4 Este 18 Nordeste 0 926.5 -- 43
2020-08-04 23:00:00 25.9 8 Nordeste 15 Nordeste 0 926.4 -- 38
2020-08-04 22:00:00 27.2 4 Nordeste 19 Nordeste 0 926 -- 37
2020-08-04 21:00:00 28.7 5 Nordeste 17 Nordeste 0 925.7 -- 34
2020-08-04 20:00:00 29.5 4 Noroeste 19 Nordeste 0 925.6 -- 33
2020-08-04 19:00:00 30.9 5 Norte 15 Norte 0 925.5 -- 33
2020-08-04 18:00:00 31.3 0 Calma 17 Sudoeste 0 925.9 -- 34
2020-08-04 17:00:00 30.2 5 Noroeste 19 Noroeste 0 926.2 -- 35
2020-08-04 16:00:00 30.3 3 Norte 20 Este 0 926.7 -- 39
2020-08-04 15:00:00 29.3 4 Nordeste 19 Nordeste 0 927.3 -- 40
2020-08-04 14:00:00 28 4 Nordeste -- -- -- 927.7 -- 43
2020-08-04 13:00:00 26.7 9 Este 23 Este 0 928.2 -- 47
2020-08-04 12:00:00 24.8 10 Este 23 Sudeste 0 928.4 -- 51
2020-08-04 11:00:00 22.8 9 Este 20 Nordeste 0 928.8 -- 56
2020-08-04 10:00:00 20.2 10 Nordeste 20 Este 0 929 -- 62
2020-08-04 09:00:00 17.1 9 Nordeste 16 Nordeste 0 928.9 -- 69
2020-08-04 08:00:00 15.6 7 Nordeste 16 Este 0 928.4 -- 72
2020-08-04 07:00:00 16.2 5 Este 18 Nordeste 0 928.1 -- 71
2020-08-04 06:00:00 17.2 9 Nordeste 23 Nordeste 0 928.1 -- 67
2020-08-04 05:00:00 18 13 Nordeste 27 Este 0 928 -- 64
2020-08-04 04:00:00 19.3 12 Nordeste 27 Este 0 928 -- 60
2020-08-04 03:00:00 20.2 11 Nordeste 23 Este 0 928.1 -- 55
2020-08-04 02:00:00 20.7 3 Oeste 8 Sudoeste 0 927.8 -- 56
2020-08-04 01:00:00 21.5 5 Sudoeste 12 Oeste 0 927.7 -- 54
2020-08-04 00:00:00 22 2 Este 8 Este 0 927.5 -- 55
2020-08-03 23:00:00 23.4 3 Este 6 Este 0 927.3 -- 48
2020-08-03 22:00:00 25.1 4 Este 13 Este 0 926.7 -- 43
2020-08-03 21:00:00 27.5 6 Este 14 Este 0 926.3 -- 38
2020-08-03 20:00:00 28.7 3 Noroeste 12 Oeste 0 926.2 -- 35
2020-08-03 19:00:00 30.1 0 Calma 11 Oeste 0 926.4 -- 35
2020-08-03 18:00:00 29.1 0 Calma 18 Nordeste 0 926.6 -- 36
2020-08-03 17:00:00 29.1 2 Este 15 Nordeste 0 927.2 -- 37
2020-08-03 16:00:00 28 4 Norte 18 Este 0 928 -- 38
2020-08-03 15:00:00 26.9 2 Nordeste 18 Este 0 928.5 -- 39
2020-08-03 14:00:00 26.4 8 Nordeste 17 Sudeste 0 929.1 -- 40
2020-08-03 13:00:00 24.8 4 Nordeste 20 Nordeste 0 929.6 -- 44
2020-08-03 12:00:00 23.8 9 Este 18 Este 0 930 -- 53
2020-08-03 11:00:00 21.5 6 Este 18 Nordeste 0 930.2 -- 60
2020-08-03 10:00:00 19.4 7 Nordeste 18 Este 0 930.4 -- 65
2020-08-03 09:00:00 16.8 5 Este 13 Este 0 930 -- 73
2020-08-03 08:00:00 16.4 5 Este 12 Este 0 929.3 -- 72
2020-08-03 07:00:00 16.5 4 Este 18 Nordeste 0 928.9 -- 70
2020-08-03 06:00:00 17.2 8 Nordeste 17 Nordeste 0 928.6 -- 66
2020-08-03 05:00:00 17.9 9 Nordeste 23 Nordeste 0 928.4 -- 65
2020-08-03 04:00:00 19.2 9 Nordeste 19 Nordeste 0 928.7 -- 64
2020-08-03 03:00:00 20 8 Nordeste 20 Nordeste 0 928.7 -- 60
2020-08-03 02:00:00 21.1 8 Este 21 Este 0 928.6 -- 53
2020-08-03 01:00:00 22.5 10 Nordeste 19 Nordeste 0 928.8 -- 48
2020-08-03 00:00:00 23.5 6 Este 16 Este 0 928.5 -- 47
2020-08-02 23:00:00 24.1 0 Calma 12 Este 0 928.2 -- 43
2020-08-02 22:00:00 26.1 5 Nordeste 13 Noroeste 0 927.5 -- 39
2020-08-02 21:00:00 27.6 3 Noroeste 20 Oeste 0 927.6 -- 37
2020-08-02 20:00:00 28.9 4 Noroeste 16 Noroeste 0 927.3 -- 35
2020-08-02 19:00:00 29.2 3 Noroeste 16 Noroeste 0 927.3 -- 36
2020-08-02 18:00:00 29.6 4 Oeste 17 Noroeste 0 927.7 -- 38
2020-08-02 17:00:00 29.7 4 Norte 21 Oeste 0 927.8 -- 39
2020-08-02 16:00:00 29.3 4 Noroeste 23 Oeste 0 928.5 -- 40
2020-08-02 15:00:00 28.5 6 Noroeste 16 Noroeste 0 928.9 -- 44
2020-08-02 14:00:00 27.5 0 Calma 17 Oeste 0 929.1 -- 51
2020-08-02 13:00:00 24.9 3 Norte 20 Nordeste 0 930.2 -- 58
2020-08-02 12:00:00 22.8 4 Norte 15 Norte 0 930.1 -- 64
2020-08-02 11:00:00 21.7 3 Norte 13 Este 0 930.1 -- 71
2020-08-02 10:00:00 20.1 6 Este 15 Nordeste 0 930.1 -- 77
2020-08-02 09:00:00 17.6 4 Este 13 Este 0 930.1 -- 85
2020-08-02 08:00:00 16.6 5 Este 13 Este 0 930 -- 88
2020-08-02 07:00:00 17.1 3 Nordeste 14 Norte 0 929.6 -- 86
2020-08-02 06:00:00 17.7 4 Nordeste 15 Nordeste 0 929.6 -- 83
2020-08-02 05:00:00 18.5 3 Norte 14 Noroeste 0 929.3 -- 79
2020-08-02 04:00:00 -- -- -- -- -- -- -- -- --
2020-08-02 03:00:00 20.8 2 Norte 16 Norte 0 929.6 -- 67
2020-08-02 02:00:00 22.5 3 Oeste 12 Oeste 0 929.8 -- 55
2020-08-02 01:00:00 23.3 7 Sudoeste 12 Sudoeste 0 929.6 -- 51
2020-08-02 00:00:00 25.1 5 Sudoeste 17 Oeste 0 929.4 -- 45
2020-08-01 23:00:00 27.3 6 Oeste 14 Oeste 0 929 -- 40
2020-08-01 22:00:00 28.7 5 Oeste 15 Oeste 0 928.5 -- 39
2020-08-01 21:00:00 30 5 Oeste 22 Oeste 0 928.2 -- 39
2020-08-01 20:00:00 31.2 6 Oeste 26 Noroeste 0 928.4 -- 36
2020-08-01 19:00:00 32.5 12 Oeste 30 Sudoeste 0 928.7 -- 34
2020-08-01 18:00:00 32.8 11 Sudoeste 33 Oeste 0 928.8 -- 35
2020-08-01 17:00:00 32.8 13 Sudoeste 31 Oeste 0 929.1 -- 37
2020-08-01 16:00:00 32.7 9 Oeste 27 Sudoeste 0 929.5 -- 39
2020-08-01 15:00:00 31.5 10 Sudoeste 27 Sudoeste 0 929.9 -- 40
2020-08-01 14:00:00 30.4 7 Oeste 26 Oeste 0 930.3 -- 42
2020-08-01 13:00:00 29 5 Oeste 18 Oeste 0 930.6 -- 43
2020-08-01 12:00:00 26.9 5 Sudoeste 16 Oeste 0 930.8 -- 48
2020-08-01 11:00:00 24 7 Oeste 15 Oeste 0 930.8 -- 56
2020-08-01 10:00:00 21.9 7 Oeste 17 Sudoeste 0 930.6 -- 60
2020-08-01 09:00:00 19.8 6 Oeste 13 Sudoeste 0 930.6 -- 65
2020-08-01 08:00:00 18.4 7 Oeste 18 Sudoeste 0 930.4 -- 66
2020-08-01 07:00:00 19.1 6 Oeste 12 Oeste 0 930 -- 63
2020-08-01 06:00:00 19.8 5 Sudoeste 14 Sudoeste 0 929.7 -- 58
2020-08-01 05:00:00 20.7 4 Oeste 14 Oeste 0 929.3 -- 55
2020-08-01 04:00:00 21.8 4 Sudoeste 9 Sudoeste 0 929.2 -- 51
2020-08-01 03:00:00 22.6 4 Sudoeste 14 Sudoeste 0 929.3 -- 44
2020-08-01 02:00:00 23.5 4 Sudoeste 10 Sudoeste 0 929.2 -- 39
2020-08-01 01:00:00 25.1 5 Oeste 12 Sudoeste 0 928.9 -- 38
2020-08-01 00:00:00 27.2 9 Oeste 15 Oeste 0 928.4 -- 33
2020-07-31 23:00:00 28.6 5 Sudoeste 15 Sudoeste 0 928.1 -- 30
2020-07-31 22:00:00 30.8 9 Sudoeste 18 Sudoeste 0 927.4 -- 30
2020-07-31 21:00:00 32.6 10 Sudoeste 23 Sudoeste 0 926.8 -- 28
2020-07-31 20:00:00 34.3 9 Oeste 25 Sur 0 926.5 -- 27
2020-07-31 19:00:00 35.7 9 Oeste 28 Sudoeste 0 926.4 -- 27
2020-07-31 18:00:00 35.7 10 Oeste 28 Oeste 0 926.7 -- 28
2020-07-31 17:00:00 35.6 12 Oeste 30 Sudoeste 0 926.9 -- 29
2020-07-31 16:00:00 35.3 13 Sudoeste 31 Oeste 0 927.3 -- 30
2020-07-31 15:00:00 34.1 11 Oeste 30 Oeste 0 927.4 -- 31
2020-07-31 14:00:00 34 6 Sudoeste 28 Sudoeste 0 927.6 -- 31
2020-07-31 13:00:00 32.5 8 Sudoeste 24 Sur 0 927.7 -- 35
2020-07-31 12:00:00 31.3 10 Sudoeste 27 Sur 0 927.8 -- 36
2020-07-31 11:00:00 28.8 2 Oeste 9 Sur 0 928 -- 47
2020-07-31 10:00:00 24.2 3 Sudeste 8 Este 0 928 -- 62
2020-07-31 09:00:00 20.2 5 Este 9 Este 0 927.6 -- 74
2020-07-31 08:00:00 18.6 4 Este 7 Este 0 927.3 -- 78
2020-07-31 07:00:00 18.7 4 Este 7 Este 0 927 -- 75
2020-07-31 06:00:00 20.2 4 Este 6 Este 0 926.6 -- 63
2020-07-31 05:00:00 21.3 3 Este 6 Este 0 926.6 -- 56
2020-07-31 04:00:00 22.1 2 Sur 6 Sudoeste 0 926.7 -- 55
2020-07-31 03:00:00 22.7 4 Sudoeste 9 Sudoeste 0 926.7 -- 55
2020-07-31 02:00:00 24.2 4 Oeste 7 Sudoeste 0 926.9 -- 54
2020-07-31 01:00:00 25.3 2 Este 13 Nordeste 0 926.9 -- 51
2020-07-31 00:00:00 27.4 3 Nordeste 17 Noroeste 0 926.6 -- 44
2020-07-30 23:00:00 28.3 8 Noroeste 19 Norte 0 926.3 -- 38
2020-07-30 22:00:00 30.8 6 Sudoeste 19 Sur 0 924.9 -- 32
2020-07-30 21:00:00 32 9 Sudoeste 27 Sur 0 923.9 -- 31
2020-07-30 20:00:00 33 15 Sudoeste 30 Sur 0 923.6 -- 31
2020-07-30 19:00:00 34.7 14 Sur 34 Sur 0 923.3 -- 30
2020-07-30 18:00:00 35.1 13 Sur 37 Sudoeste 0 923.5 -- 31
2020-07-30 17:00:00 35.2 15 Sur 42 Sudoeste 0 923.8 -- 30
2020-07-30 16:00:00 35.3 9 Sur 35 Sudoeste 0 923.9 -- 33
2020-07-30 15:00:00 34.3 12 Sudoeste 32 Sudoeste 0 924.1 -- 35
2020-07-30 14:00:00 34 10 Sur 26 Sudoeste 0 924.4 -- 35
2020-07-30 13:00:00 34.6 11 Sur 26 Sudoeste 0 924.8 -- 35
2020-07-30 12:00:00 33.6 7 Sur 23 Sur 0 924.9 -- 36
2020-07-30 11:00:00 29.6 3 Este 9 Este 0 925.2 -- 51
2020-07-30 10:00:00 25.1 3 Nordeste 9 Este 0 925.5 -- 63
2020-07-30 09:00:00 21.2 3 Este 8 Este 0 925.4 -- 73
2020-07-30 08:00:00 19.4 5 Este 8 Este 0 925 -- 77
2020-07-30 07:00:00 19.7 4 Este 7 Este 0 924.8 -- 78
2020-07-30 06:00:00 20.4 2 Este 7 Este 0 924.4 -- 75
2020-07-30 05:00:00 20.9 4 Este 9 Este 0 924.5 -- 71
2020-07-30 04:00:00 22.9 2 Este 8 Este 0 924.4 -- 56
2020-07-30 03:00:00 24.1 2 Oeste 11 Sudoeste 0 924.4 -- 48
2020-07-30 02:00:00 25.5 5 Sudoeste 14 Oeste 0 924.8 -- 44
2020-07-30 01:00:00 25.7 0 Calma 8 Este 0 925.1 -- 51
2020-07-30 00:00:00 26.9 2 Sur 6 Sudoeste 0 924.9 -- 49
2020-07-29 23:00:00 28.6 0 Calma 3 Nordeste 0 924.6 -- 44
2020-07-29 22:00:00 31.5 2 Sudoeste 9 Sudoeste 0 924.2 -- 37
2020-07-29 21:00:00 34 3 Este 12 Este 0 923.8 -- 32
2020-07-29 20:00:00 35.8 5 Este 12 Norte 0 923.6 -- 30
2020-07-29 19:00:00 36.8 4 Nordeste 14 Sur 0 923.7 -- 29
2020-07-29 18:00:00 35.9 0 Calma 21 Oeste 0 924.4 -- 30
2020-07-29 17:00:00 36.3 3 Este 20 Sudoeste 0 924.8 -- 30
2020-07-29 16:00:00 35.4 6 Sudeste 17 Sudeste 0 925.3 -- 31
2020-07-29 15:00:00 34.4 5 Norte 16 Nordeste 0 925.8 -- 30
2020-07-29 14:00:00 32.2 3 Este 15 Este 0 926.6 -- 43
2020-07-29 13:00:00 29.9 7 Este 15 Sudeste 0 927.2 -- 52
2020-07-29 12:00:00 26.7 7 Este 16 Este 0 927.7 -- 61
2020-07-29 11:00:00 24.2 6 Este 17 Sudeste 0 927.7 -- 70
2020-07-29 10:00:00 21.5 6 Este 15 Nordeste 0 928.2 -- 78
2020-07-29 09:00:00 19.1 6 Nordeste 19 Nordeste 0 928.1 -- 87
2020-07-29 08:00:00 18.1 6 Nordeste 14 Nordeste 0 927.8 -- 88
2020-07-29 07:00:00 18.2 5 Este 16 Nordeste 0 927.5 -- 87
2020-07-29 06:00:00 18.9 7 Nordeste 14 Este 0 927.2 -- 83
2020-07-29 05:00:00 19.9 6 Nordeste 19 Nordeste 0 927.2 -- 78
2020-07-29 04:00:00 21.1 9 Nordeste 22 Nordeste 0 927.1 -- 72
2020-07-29 03:00:00 22.2 9 Nordeste 23 Nordeste 0 927.4 -- 68
2020-07-29 02:00:00 23.5 3 Este 18 Este 0 927.2 -- 64
2020-07-29 01:00:00 24.6 6 Este 14 Este 0 927.5 -- 60
2020-07-29 00:00:00 26.4 7 Nordeste 19 Nordeste 0 927 -- 53
2020-07-28 23:00:00 28.4 9 Nordeste 24 Este 0 926.6 -- 43
2020-07-28 22:00:00 31.2 2 Nordeste 12 Noroeste 0 926 -- 37
2020-07-28 21:00:00 32.4 4 Noroeste 13 Oeste 0 925.8 -- 34
2020-07-28 20:00:00 33.8 6 Oeste 15 Sudoeste 0 925.8 -- 34
2020-07-28 19:00:00 34.3 4 Oeste 20 Oeste 0 926 -- 34
2020-07-28 18:00:00 34.2 5 Oeste 20 Oeste 0 926.1 -- 35
2020-07-28 17:00:00 34.1 4 Noroeste 17 Noroeste 0 926.4 -- 36
2020-07-28 16:00:00 32 5 Oeste 21 Oeste 0 926.7 -- 39
2020-07-28 15:00:00 32 4 Oeste 19 Oeste 0 927.2 -- 43
2020-07-28 14:00:00 30.8 6 Sur 16 Sudoeste 0 927.4 -- 48
2020-07-28 13:00:00 28 4 Oeste 15 Oeste 0 927.9 -- 54
2020-07-28 12:00:00 26.4 4 Oeste 15 Sudoeste 0 928.3 -- 59
2020-07-28 11:00:00 24 5 Oeste 14 Sudoeste 0 928.4 -- 67
2020-07-28 10:00:00 22.2 6 Oeste 15 Sudoeste 0 928.2 -- 74
2020-07-28 09:00:00 20.6 9 Oeste 19 Oeste 0 928.1 -- 79
2020-07-28 08:00:00 19.9 10 Oeste 19 Oeste 0 927.5 -- 79
2020-07-28 07:00:00 20.1 10 Oeste 19 Oeste 0 926.8 -- 78
2020-07-28 06:00:00 20.8 6 Oeste 17 Sudoeste 0 926.6 -- 75
2020-07-28 05:00:00 21.3 8 Sudoeste 15 Sudoeste 0 926.9 -- 72
2020-07-28 04:00:00 22.2 6 Oeste 13 Sudoeste 0 927 -- 69
2020-07-28 03:00:00 23.5 4 Oeste 21 Sudoeste 0 926.9 -- 63
2020-07-28 02:00:00 24.6 6 Oeste 15 Sudoeste 0 927.1 -- 55
2020-07-28 01:00:00 26.1 6 Oeste 19 Oeste 0 927.2 -- 51
2020-07-28 00:00:00 27.7 9 Oeste 21 Oeste 0 926.8 -- 44
2020-07-27 23:00:00 29.2 9 Oeste 22 Oeste 0 926.5 -- 43
2020-07-27 22:00:00 31.3 11 Oeste 24 Sudoeste 0 925.8 -- 36
2020-07-27 21:00:00 33.7 6 Sur 21 Sudoeste 0 925.2 -- 29
2020-07-27 20:00:00 35.7 8 Sur 22 Sudoeste 0 925 -- 27
2020-07-27 19:00:00 36.8 13 Sur 24 Sur 0 925.2 -- 28
2020-07-27 18:00:00 37.5 11 Sudoeste 28 Sudoeste 0 925.2 -- 28
2020-07-27 17:00:00 38.1 9 Sur 30 Sudoeste 0 925.4 -- 30
2020-07-27 16:00:00 37.5 7 Sur 24 Noroeste 0 925.4 -- 30
2020-07-27 15:00:00 36.5 9 Oeste 24 Sudoeste 0 925.9 -- 31
2020-07-27 14:00:00 35.8 8 Oeste 21 Sudoeste 0 926.6 -- 31
2020-07-27 13:00:00 33.5 2 Sudoeste 10 Sudeste 0 926.9 -- 34
2020-07-27 12:00:00 31 0 Calma 8 Este 0 927.3 -- 37
2020-07-27 09:00:00 20.2 2 Este 4 Este 0 927.1 0.4 66
2020-07-27 08:00:00 17.9 3 Este 6 Este 0 927.1 0.2 77
2020-07-27 07:00:00 18.1 2 Este 6 Este 0 926.8 0 75
2020-07-27 06:00:00 18.7 2 Este 6 Este 0 926.7 -0.2 60
2020-07-27 05:00:00 19 0 Calma 6 Oeste 0 926.9 0 60
2020-07-27 04:00:00 19.7 0 Calma 4 Oeste 0 926.8 -0.3 63
2020-07-27 03:00:00 20.2 3 Sudoeste 6 Sudoeste 0 926.9 0.1 59
2020-07-27 02:00:00 21.4 0 Calma 4 Oeste 0 926.9 0.2 59
2020-07-27 01:00:00 22.4 0 Calma 2 Nordeste 0 927.1 1.1 58
2020-07-27 00:00:00 24.5 0 Calma 5 Este 0 926.8 1.2 48
2020-07-26 23:00:00 26.6 0 Calma 9 Noroeste 0 926.7 1.3 44
2020-07-26 22:00:00 29.9 0 Calma 9 Oeste 0 926 0.5 35
2020-07-26 21:00:00 32.7 6 Oeste 13 Sudoeste 0 925.6 -0.3 31
2020-07-26 20:00:00 34.1 6 Oeste 15 Norte 0 925.4 -0.9 30
2020-07-26 19:00:00 35.2 5 Oeste 17 Oeste 0 925.5 -1.5 29
2020-07-26 18:00:00 34.7 7 Oeste 24 Sudoeste 0 925.9 -1.7 30
2020-07-26 17:00:00 34.2 8 Oeste 19 Oeste 0 926.3 -1.7 31
2020-07-26 16:00:00 33.3 3 Sur 11 Sudoeste 0 927 -1.4 35
2020-07-26 15:00:00 31.4 4 Este 14 Este 0 927.6 -0.7 38
2020-07-26 14:00:00 30.6 4 Este 12 Nordeste 0 928 -0.5 39
2020-07-26 13:00:00 28.7 0 Calma 12 Sudeste 0 928.4 -0.1 42
2020-07-26 12:00:00 27.6 4 Este 14 Sudeste 0 928.3 0.1 45
2020-07-26 11:00:00 24.7 4 Este 10 Este 0 928.5 0.4 56
2020-07-26 10:00:00 22.1 2 Sudeste 5 Sudeste 0 928.5 -- 60
2020-07-26 09:00:00 18.5 0 Calma 4 Este 0 928.2 -- 67
2020-07-26 08:00:00 16.8 0 Calma 4 Este 0 928.1 -- 65
2020-07-26 07:00:00 17 0 Calma 3 Sur 0 927.9 -- 66
2020-07-26 06:00:00 18 0 Calma 4 Sur 0 927.6 -- 65
2020-07-26 05:00:00 19 0 Calma 3 Este 0 927.8 -- 65
2020-07-26 04:00:00 19.7 0 Calma 11 Nordeste 0 927.9 -- 57
2020-07-26 03:00:00 21.1 5 Este 9 Este 0 927.9 -- 50
2020-07-26 02:00:00 22.6 3 Oeste 6 Sudoeste 0 927.6 -- 44
2020-07-26 01:00:00 23.9 5 Sudoeste 10 Sudoeste 0 927.5 -- 41
2020-07-26 00:00:00 25.4 6 Oeste 14 Noroeste 0 927.1 -- 36
2020-07-25 23:00:00 27.8 9 Oeste 21 Oeste 0 926.5 -- 32
2020-07-25 22:00:00 29.5 8 Oeste 19 Oeste 0 925.5 -- 30
2020-07-25 21:00:00 31 11 Oeste 25 Oeste 0 925 -- 29
2020-07-25 20:00:00 32.5 11 Oeste 27 Oeste 0 924.8 -- 30
2020-07-25 19:00:00 33.7 11 Sudoeste 29 Sudoeste 0 925 -- 30
2020-07-25 18:00:00 34.2 12 Oeste 25 Sudoeste 0 925.2 -- 31
2020-07-25 17:00:00 34.3 12 Sudoeste 27 Sudoeste 0 925.6 -- 31
2020-07-25 16:00:00 34.1 8 Oeste 28 Sudoeste 0 926 -- 32
2020-07-25 15:00:00 33.3 10 Sudoeste 27 Sur 0 926.3 -- 34
2020-07-25 14:00:00 31.9 5 Oeste 16 Oeste 0 926.6 -- 37
2020-07-25 13:00:00 29.8 7 Sudoeste 14 Sudoeste 0 927.1 -- 41
2020-07-25 12:00:00 27.4 4 Sudeste 9 Este 0 927.3 -- 48
2020-07-25 11:00:00 24.4 3 Este 10 Este 0 927.3 -- 56
2020-07-25 10:00:00 21.7 4 Este 12 Este 0 927.5 -- 62
2020-07-25 09:00:00 18.8 4 Este 7 Nordeste 0 927.4 -- 68
2020-07-25 08:00:00 17.6 2 Este 6 Este 0 927.3 -- 70
2020-07-25 07:00:00 18.2 3 Este 11 Este 0 927.3 -- 68
2020-07-25 06:00:00 19 2 Este 12 Este 0 927.1 -- 66
2020-07-25 05:00:00 19.9 5 Este 16 Este 0 927.3 -- 59
2020-07-25 04:00:00 21.7 6 Nordeste 17 Nordeste 0 927.2 -- 51
2020-07-25 03:00:00 22.9 2 Nordeste 11 Nordeste 0 927.5 -- 49
2020-07-25 02:00:00 23 4 Nordeste 8 Nordeste 0 927.6 -- 48
2020-07-25 01:00:00 23.2 0 Calma 10 Sudoeste 0 927.4 -- 44
2020-07-25 00:00:00 24.5 3 Este 8 Este 0 927.2 -- 44
2020-07-24 23:00:00 26.1 5 Este 13 Nordeste 0 926.9 -- 39
2020-07-24 22:00:00 29.3 5 Nordeste 15 Nordeste 0 926.2 -- 33
2020-07-24 21:00:00 30.8 4 Norte 17 Norte 0 926.1 -- 31
2020-07-24 20:00:00 32.1 3 Norte 20 Noroeste 0 925.8 -- 31
2020-07-24 19:00:00 32.9 4 Noroeste 19 Oeste 0 925.9 -- 31
2020-07-24 18:00:00 33.1 6 Oeste 19 Oeste 0 926.3 -- 30
2020-07-24 17:00:00 32.6 6 Oeste 19 Sudoeste 0 926.6 -- 30
2020-07-24 16:00:00 32.3 4 Sudoeste 14 Sudoeste 0 926.9 -- 32
2020-07-24 15:00:00 31.2 5 Sudeste 19 Nordeste 0 927.4 -- 37
2020-07-24 14:00:00 29.9 7 Este 21 Este 0 927.8 -- 41
2020-07-24 13:00:00 28.2 6 Este 20 Nordeste 0 928.2 -- 44
2020-07-24 12:00:00 25.6 6 Nordeste 19 Nordeste 0 928.5 -- 52
2020-07-24 11:00:00 24.2 6 Este 15 Nordeste 0 928.5 -- 61
2020-07-24 10:00:00 21.6 6 Este 14 Este 0 928.5 -- 70
2020-07-24 09:00:00 19.2 6 Este 12 Nordeste 0 928.4 -- 73
2020-07-24 08:00:00 18.5 7 Nordeste 15 Nordeste 0 928.1 -- 70
2020-07-24 07:00:00 19.1 3 Este 8 Este 0 927.7 -- 65
2020-07-24 06:00:00 20.6 6 Nordeste 13 Nordeste 0 927.5 -- 60
2020-07-24 05:00:00 21.7 2 Este 9 Nordeste 0 927.7 -- 56
2020-07-24 04:00:00 22.3 4 Oeste 8 Oeste 0 927.8 -- 50
2020-07-24 03:00:00 23.7 5 Nordeste 9 Nordeste 0 928.1 -- 47
2020-07-24 02:00:00 24.6 3 Oeste 14 Noroeste 0 928.5 -- 44
2020-07-24 01:00:00 26.2 4 Noroeste 14 Noroeste 0 928.3 -- 44
2020-07-24 00:00:00 26.8 6 Oeste 16 Oeste 0 927.9 -- 44
2020-07-23 23:00:00 28.2 8 Oeste 17 Oeste 0 927.3 -- 42
2020-07-23 22:00:00 30 9 Oeste 28 Sudoeste 0 926.5 -- 39
2020-07-23 21:00:00 31.7 10 Oeste 24 Oeste 0 926.2 -- 34
2020-07-23 20:00:00 33.2 9 Oeste 23 Oeste 0 926 -- 33
2020-07-23 19:00:00 33.8 12 Oeste 26 Oeste 0 926.2 -- 32
2020-07-23 18:00:00 34.2 10 Oeste 23 Sudoeste 0 926.6 -- 34
2020-07-23 17:00:00 33.6 8 Oeste 18 Noroeste 0 927.2 -- 35
2020-07-23 16:00:00 33.3 5 Noroeste 24 Oeste 0 927.8 -- 36
2020-07-23 15:00:00 32.6 5 Oeste 18 Sudoeste 0 928.4 -- 38
2020-07-23 14:00:00 31.7 4 Noroeste 18 Sudoeste 0 928.9 -- 39
2020-07-23 13:00:00 31.2 8 Sudoeste 17 Sudoeste 0 929.3 -- 44
2020-07-23 12:00:00 29.4 7 Sudoeste 13 Sudoeste 0 929.6 -- 49
2020-07-23 11:00:00 26.5 5 Sudoeste 10 Sur 0 929.8 -- 56
2020-07-23 10:00:00 24.1 0 Calma 7 Nordeste 0 930 -- 64
2020-07-23 09:00:00 21.4 2 Este 5 Este 0 929.9 -- 72
2020-07-23 08:00:00 19.8 0 Calma 6 Sudoeste 0 929.9 -- 72
2020-07-23 07:00:00 20 4 Sudoeste 7 Oeste 0 929.5 -- 70
2020-07-23 06:00:00 20.8 3 Oeste 11 Oeste 0 929.4 -- 68
2020-07-23 05:00:00 21.3 2 Sudoeste 6 Sudoeste 0 929.2 -- 64
2020-07-23 04:00:00 22.1 3 Sudoeste 7 Oeste 0 929.2 -- 60
2020-07-23 03:00:00 22.9 4 Oeste 15 Sur 0 929.6 -- 55
2020-07-23 02:00:00 24.8 0 Calma 15 Noroeste 0 929.3 -- 51
2020-07-23 01:00:00 25.8 6 Noroeste 19 Noroeste 0 929.4 -- 47
2020-07-23 00:00:00 27.2 4 Noroeste 19 Noroeste 0 929.2 -- 44
2020-07-22 23:00:00 28.1 4 Noroeste 13 Norte 0 929 -- 41
2020-07-22 22:00:00 29.6 4 Este 10 Oeste 0 928.4 -- 37
2020-07-22 21:00:00 30.8 4 Noroeste 14 Noroeste 0 928.2 -- 34
2020-07-22 20:00:00 32 5 Norte 17 Noroeste 0 927.9 -- 33
2020-07-22 19:00:00 32.9 3 Oeste 17 Noroeste 0 928.1 -- 35
2020-07-22 18:00:00 32.5 3 Noroeste 15 Este 0 928.5 -- 35
2020-07-22 17:00:00 31.7 7 Este 20 Este 0 928.7 -- 40
2020-07-22 16:00:00 31.2 6 Nordeste 19 Nordeste 0 929.2 -- 43
2020-07-22 15:00:00 29.9 7 Este 20 Este 0 929.6 -- 45
2020-07-22 14:00:00 28.7 7 Este 21 Este 0 929.9 -- 48
2020-07-22 13:00:00 27.7 5 Este 17 Nordeste 0 930 -- 51
2020-07-22 12:00:00 26.7 6 Sudeste 12 Sudeste 0 930.2 -- 56
2020-07-22 11:00:00 23.6 0 Calma 12 Este 0.1 930.3 -- 68
2020-07-22 10:00:00 21.7 3 Norte 11 Norte 0 930.2 -- 76
2020-07-22 09:00:00 20 7 Nordeste 15 Nordeste 0 929.8 -- 83
2020-07-22 08:00:00 18.2 3 Este 8 Este 0 929.7 -- 90
2020-07-22 07:00:00 19 2 Oeste 9 Noroeste 0 928.7 -- 82
2020-07-22 06:00:00 19 2 Este 8 Nordeste 0 928.8 -- 87
2020-07-22 05:00:00 19.6 0 Calma 8 Oeste 0 929.8 -- 78
2020-07-22 04:00:00 20.1 4 Sudoeste 10 Sudoeste 0 930 -- 77
2020-07-22 03:00:00 20.5 2 Sudeste 10 Este 0 930.4 -- 86
2020-07-22 02:00:00 21 6 Oeste 15 Este 0.6 930.1 -- 80
2020-07-22 01:00:00 23 9 Este 25 Sur 0 931.4 -- 58
2020-07-22 00:00:00 23.1 10 Este 21 Este 0 930.3 -- 59
2020-07-21 23:00:00 24.4 4 Sur 16 Sur 0 929 -- 52
2020-07-21 22:00:00 25.7 3 Sur 12 Sudoeste 0 928.2 -- 48
2020-07-21 21:00:00 26.5 0 Calma 17 Sudeste 0 927.8 -- 46
2020-07-21 20:00:00 27.4 6 Sudeste 24 Sudeste 0 928.8 -- 44
2020-07-21 19:00:00 28.4 8 Sur 17 Sur 0 928.8 -- 44
2020-07-21 18:00:00 28.2 9 Sudoeste 31 Sudoeste 0 929.2 -- 45
2020-07-21 17:00:00 28.6 13 Sudoeste 24 Sudoeste 0 928.8 -- 45
2020-07-21 16:00:00 29.8 10 Oeste 18 Oeste 0 928.9 -- 47
2020-07-21 15:00:00 30.5 7 Oeste 17 Oeste 0 928.5 -- 48
2020-07-21 14:00:00 29.1 5 Oeste 25 Oeste 0 928.8 -- 51
2020-07-21 13:00:00 27.7 6 Oeste 16 Sudoeste 0 929.1 -- 54
2020-07-21 12:00:00 25.7 5 Sudeste 12 Este 0 928.8 -- 58
2020-07-21 11:00:00 24.2 6 Este 14 Este 0 928.7 -- 63
2020-07-21 10:00:00 22.3 0 Calma 12 Noroeste 0 929 -- 65
2020-07-21 09:00:00 20.2 6 Oeste 20 Sudoeste 0 928.8 -- 70
2020-07-21 08:00:00 18.5 13 Oeste 24 Sudoeste 0 928.4 -- 60
2020-07-21 07:00:00 17.1 0 Calma 12 Nordeste 0 927.2 -- 66
2020-07-21 06:00:00 17.5 4 Este 7 Este 0 926.9 -- 65
2020-07-21 05:00:00 18.3 5 Este 8 Este 0 926.9 -- 65
2020-07-21 04:00:00 19 4 Este 8 Este 0 927.2 -- 64
2020-07-21 03:00:00 19.9 5 Este 7 Este 0 927.5 -- 62
2020-07-21 02:00:00 21.6 3 Este 6 Este 0 927.7 -- 54
2020-07-21 01:00:00 22.8 0 Calma 4 Sudoeste 0 927.7 -- 46
2020-07-21 00:00:00 24.6 0 Calma 4 Sudoeste 0 927.7 -- 46
2020-07-20 23:00:00 27.2 0 Calma 6 Sudoeste 0 927.1 -- 35
2020-07-20 22:00:00 30.8 2 Noroeste 13 Noroeste 0 926.4 -- 27
2020-07-20 21:00:00 32.5 6 Oeste 17 Oeste 0 925.9 -- 26
2020-07-20 20:00:00 34.2 6 Noroeste 26 Noroeste 0 925.5 -- 25
2020-07-20 19:00:00 35.1 10 Oeste 23 Sudoeste 0 925.6 -- 24
2020-07-20 18:00:00 35.6 9 Oeste 24 Sudoeste 0 925.9 -- 24
2020-07-20 17:00:00 35.2 11 Oeste 28 Oeste 0 926.1 -- 25
2020-07-20 16:00:00 34.8 7 Oeste 29 Oeste 0 926.4 -- 26
2020-07-20 15:00:00 34 13 Oeste 32 Sudoeste 0 926.8 -- 26
2020-07-20 14:00:00 33.2 6 Oeste 26 Sudoeste 0 926.8 -- 27
2020-07-20 13:00:00 31.9 6 Sudoeste 20 Sudoeste 0 927.1 -- 31
2020-07-20 12:00:00 29.3 3 Noroeste 10 Oeste 0 927.3 -- 40
2020-07-20 11:00:00 25.9 0 Calma 8 Oeste 0 927.2 -- 54
2020-07-20 10:00:00 23.4 3 Sur 6 Sur 0 927.2 -- 62
2020-07-20 09:00:00 19.8 0 Calma 5 Este 0 927 -- 69
2020-07-20 08:00:00 18.2 3 Este 4 Este 0 926.5 -- 74
2020-07-20 07:00:00 18.1 3 Este 7 Este 0 926.1 -- 73
2020-07-20 06:00:00 19.7 2 Este 5 Este 0 926.2 -- 66
2020-07-20 05:00:00 20.9 0 Calma 6 Sudoeste 0 926.4 -- 62
2020-07-20 04:00:00 22.3 5 Sudoeste 12 Sudoeste 0 926.1 -- 56
2020-07-20 03:00:00 23 6 Sudoeste 11 Sudoeste 0 926.6 -- 52
2020-07-20 02:00:00 24 3 Sudoeste 11 Sudoeste 0 926.8 -- 45
2020-07-20 01:00:00 25.4 0 Calma 12 Sudoeste 0 926.6 -- 42
2020-07-20 00:00:00 26.8 4 Oeste 14 Sur 0 926.5 -- 35
2020-07-19 23:00:00 28 8 Sudoeste 17 Sudoeste 0 926.1 -- 31
2020-07-19 22:00:00 29.6 6 Sur 22 Sudeste 0 925.2 -- 29
2020-07-19 21:00:00 31.9 10 Sudoeste 24 Sudoeste 0 924.6 -- 29
2020-07-19 20:00:00 33.8 9 Sudoeste 25 Sudoeste 0 924.5 -- 27
2020-07-19 19:00:00 35 11 Sudoeste 28 Sudoeste 0 924.5 -- 26
2020-07-19 18:00:00 35 13 Sudoeste 32 Sudoeste 0 924.7 -- 26
2020-07-19 17:00:00 34.8 11 Sur 33 Sudeste 0 925 -- 26
2020-07-19 16:00:00 34.1 13 Sur 29 Sur 0 925.4 -- 26
2020-07-19 15:00:00 34 10 Sur 31 Sudoeste 0 925.7 -- 28
2020-07-19 14:00:00 33 13 Sur 32 Sur 0 926 -- 31
2020-07-19 13:00:00 32.5 14 Sudoeste 31 Oeste 0 926.1 -- 35
2020-07-19 12:00:00 31.2 6 Oeste 18 Sudoeste 0 926 0 41
2020-07-19 11:00:00 27.5 2 Este 11 Este 0 925.9 -0.2 49
2020-07-19 10:00:00 23.2 6 Este 11 Este 0 925.7 -0.3 60
2020-07-19 09:00:00 19.1 4 Este 9 Este 0 926 -0.3 68
2020-07-19 08:00:00 16.4 5 Este 9 Este 0 926.1 -- 76
2020-07-19 07:00:00 16.7 5 Este 8 Este 0 926 -- 76
2020-07-19 06:00:00 18 4 Este 5 Este 0 926.3 -- 72
2020-07-19 05:00:00 19.1 2 Este 5 Este 0 926.3 -- 64
2020-07-19 04:00:00 20 2 Este 5 Este 0 926.6 -- 60
2020-07-19 03:00:00 20.5 0 Calma 7 Oeste 0 926.8 -- 60
2020-07-19 02:00:00 21.4 5 Este 7 Este 0 926.8 -- 60
2020-07-19 01:00:00 22.2 4 Este 6 Este 0 926.8 -- 58
2020-07-19 00:00:00 24.1 0 Calma 5 Este 0 927 -- 52
2020-07-18 23:00:00 26 3 Este 6 Este 0 926.7 -- 46
2020-07-18 22:00:00 29.9 0 Calma 10 Noroeste 0 925.9 -- 31
2020-07-18 21:00:00 31.7 4 Noroeste 16 Oeste 0 925.8 -- 29
2020-07-18 20:00:00 33.1 4 Oeste 14 Oeste 0 925.5 -- 28
2020-07-18 19:00:00 33.3 6 Oeste 18 Oeste 0 925.7 -- 28
2020-07-18 18:00:00 33.6 7 Oeste 22 Sudoeste 0 926.2 -- 29
2020-07-18 17:00:00 32.8 2 Este 14 Este 0 926.8 -- 30
2020-07-18 16:00:00 31.6 4 Este 20 Este 0 927.1 -- 32
2020-07-18 15:00:00 31.4 7 Sudeste 16 Este 0 927.7 -- 35
2020-07-18 14:00:00 29.5 5 Este 14 Nordeste 0 928.2 -- 37
2020-07-18 13:00:00 27.2 7 Este 16 Este 0 928.7 -- 43
2020-07-18 12:00:00 23.9 4 Este 15 Este 0 928.8 -- 57
2020-07-18 11:00:00 20.5 5 Este 16 Este 0 929.3 -- 66
2020-07-18 10:00:00 18.4 7 Este 14 Este 0 929.5 -- 73
2020-07-18 09:00:00 15.5 6 Este 14 Nordeste 0 929.5 -- 81
2020-07-18 08:00:00 13.9 6 Nordeste 16 Nordeste 0 929.4 -- 83
2020-07-18 07:00:00 14.5 6 Este 12 Nordeste 0 929.1 -- 76
2020-07-18 06:00:00 15.4 5 Este 14 Nordeste 0 929 -- 71
2020-07-18 05:00:00 15.8 4 Este 8 Nordeste 0 928.9 -- 71
2020-07-18 04:00:00 16.5 5 Este 15 Nordeste 0 929 -- 64
2020-07-18 03:00:00 18 8 Nordeste 18 Nordeste 0 929.1 -- 57
2020-07-18 02:00:00 19.1 8 Nordeste 19 Nordeste 0 929.2 -- 50
2020-07-18 01:00:00 20.2 6 Este 11 Este 0 929.3 -- 47
2020-07-18 00:00:00 21.9 6 Nordeste 14 Nordeste 0 929.1 -- 42
2020-07-17 23:00:00 24 4 Este 10 Nordeste 0 928.6 -- 36
2020-07-17 22:00:00 26.4 4 Este 16 Este 0 928.1 -- 34
2020-07-17 21:00:00 29.9 5 Nordeste 21 Nordeste 0 927.8 -- 29
2020-07-17 20:00:00 31.8 3 Norte 24 Nordeste 0 927.6 -- 26
2020-07-17 19:00:00 32.8 3 Nordeste 20 Norte 0 927.7 -- 25
2020-07-17 18:00:00 33 4 Nordeste 19 Este 0 928 -- 27
2020-07-17 17:00:00 32.5 7 Nordeste 22 Este 0 928.3 -- 28
2020-07-17 16:00:00 31.9 5 Este 24 Nordeste 0 928.8 -- 31
2020-07-17 15:00:00 30.3 9 Este 23 Este 0 929.2 -- 34
2020-07-17 14:00:00 29.2 9 Este 27 Este 0 929.6 -- 36
2020-07-17 13:00:00 26.8 12 Este 24 Este 0 930 -- 41
2020-07-17 12:00:00 25.5 12 Este 23 Este 0 930.3 -- 46
2020-07-17 11:00:00 23 9 Este 18 Sudeste 0 930.5 -- 50
2020-07-17 10:00:00 20.5 6 Este 17 Nordeste 0 931.2 -- 57
2020-07-17 09:00:00 17.6 7 Nordeste 17 Nordeste 0 931.1 -- 62
2020-07-17 08:00:00 15.7 6 Este 14 Este 0 930.5 -- 63
2020-07-17 07:00:00 15.7 3 Este 13 Este 0 930.3 -- 63
2020-07-17 06:00:00 16.3 6 Nordeste 13 Este 0 930.1 -- 60
2020-07-17 05:00:00 17.5 5 Este 16 Nordeste 0 930.1 -- 56
2020-07-17 04:00:00 18.6 9 Nordeste 19 Nordeste 0 930.1 -- 53
2020-07-17 03:00:00 20 9 Nordeste 19 Nordeste 0 930.5 -- 50
2020-07-17 02:00:00 20.9 7 Nordeste 18 Este 0 930.4 -- 56
2020-07-17 01:00:00 22.9 8 Este 24 Nordeste 0 930.3 -- 50
2020-07-17 00:00:00 24.9 10 Nordeste 22 Nordeste 0 930.1 -- 45
2020-07-16 23:00:00 27 9 Nordeste 25 Nordeste 0 929.5 -- 36
2020-07-16 22:00:00 29 2 Norte 17 Norte 0 929 -- 32
2020-07-16 21:00:00 30.8 3 Nordeste 14 Este 0 928.8 -- 29
2020-07-16 20:00:00 32.1 4 Norte 15 Noroeste 0 928.7 -- 27
2020-07-16 19:00:00 32.8 6 Noroeste 18 Noroeste 0 928.7 -- 28
2020-07-16 18:00:00 32.1 6 Norte 18 Noroeste 0 929.1 -- 30
2020-07-16 17:00:00 32.3 3 Noroeste 18 Nordeste 0 929.4 -- 30
2020-07-16 16:00:00 31.9 2 Norte 18 Nordeste 0 929.9 -- 30
2020-07-16 15:00:00 30.9 5 Nordeste 21 Este 0 930.5 -- 31
2020-07-16 14:00:00 29.6 5 Este 21 Este 0 930.9 -- 35
2020-07-16 13:00:00 27.5 8 Este 17 Este 0 931.3 -- 42
2020-07-16 12:00:00 25.1 8 Este 18 Este 0 931.6 -- 48
2020-07-16 11:00:00 22.6 7 Este 16 Este 0 931.9 -- 52
2020-07-16 10:00:00 20.2 7 Este 18 Nordeste 0 932.1 -- 56
2020-07-16 09:00:00 17 7 Este 19 Nordeste 0 931.8 -- 62
2020-07-16 08:00:00 15.4 4 Este 13 Este 0 931.7 -- 64
2020-07-16 07:00:00 15.7 5 Este 15 Este 0 931.3 -- 62
2020-07-16 06:00:00 16.6 8 Nordeste 18 Este 0 930.9 -- 59
2020-07-16 05:00:00 17.5 6 Nordeste 19 Nordeste 0 930.6 -- 60
2020-07-16 04:00:00 17.7 8 Nordeste 15 Este 0 930.8 -- 62
2020-07-16 03:00:00 18.4 5 Este 16 Nordeste 0 931.2 -- 61
2020-07-16 02:00:00 19.7 7 Nordeste 21 Nordeste 0 931.2 -- 56
2020-07-16 01:00:00 21.5 7 Nordeste 21 Nordeste 0 931.2 -- 49
2020-07-16 00:00:00 22.9 7 Nordeste 22 Nordeste 0 930.6 -- 45
2020-07-15 23:00:00 24.5 9 Nordeste 21 Este 0 930 -- 43
2020-07-15 22:00:00 26.5 7 Nordeste 21 Nordeste 0 929.4 -- 40
2020-07-15 21:00:00 28.2 8 Nordeste 26 Nordeste 0 929.1 -- 33
2020-07-15 20:00:00 30.2 8 Nordeste 24 Nordeste 0 928.8 -- 30
2020-07-15 19:00:00 31.1 9 Este 25 Este 0 928.7 -- 29
2020-07-15 18:00:00 30.6 9 Este 29 Este 0 928.9 -- 31
2020-07-15 17:00:00 30.3 9 Nordeste 23 Este 0 929.1 -- 33
2020-07-15 16:00:00 29.3 10 Este 28 Este 0 929.5 -- 36
2020-07-15 15:00:00 28 10 Este 27 Nordeste 0 929.9 -- 39
2020-07-15 14:00:00 26.4 10 Este 31 Este 0 930.3 -- 42
2020-07-15 13:00:00 24.7 14 Este 28 Este 0 930.9 -- 45
2020-07-15 12:00:00 22.7 12 Este 31 Este 0 931 -- 46
2020-07-15 11:00:00 20.8 12 Nordeste 32 Nordeste 0 930.8 -- 48
2020-07-15 10:00:00 17.6 11 Nordeste 29 Nordeste 0 931 -- 55
2020-07-15 09:00:00 15.3 10 Nordeste 25 Este 0 930.8 -- 60
2020-07-15 08:00:00 13.4 6 Nordeste 22 Norte 0 930.3 -- 60
2020-07-15 07:00:00 13.5 9 Nordeste 19 Nordeste 0 929.9 -- 60
2020-07-15 06:00:00 14.2 8 Nordeste 19 Nordeste 0 929.5 -- 60
2020-07-15 05:00:00 14.9 10 Nordeste 21 Nordeste 0 929.2 -- 60
2020-07-15 04:00:00 16.1 10 Nordeste 23 Nordeste 0 929 -- 60
2020-07-15 03:00:00 17.3 10 Nordeste 23 Nordeste 0 928.7 -- 58
2020-07-15 02:00:00 18.9 10 Nordeste 26 Nordeste 0 928.7 -- 57
2020-07-15 01:00:00 20.3 14 Nordeste 29 Nordeste 0 928.5 -- 51
2020-07-15 00:00:00 22.1 8 Nordeste 22 Nordeste 0 927.7 -- 42
2020-07-14 23:00:00 24.2 12 Nordeste 26 Este 0 927.1 -- 35
2020-07-14 22:00:00 26.5 8 Nordeste 27 Nordeste 0 926.3 -- 30
2020-07-14 21:00:00 28.5 9 Nordeste 27 Nordeste 0 925.7 -- 27
2020-07-14 20:00:00 29.6 5 Norte 19 Noroeste 0 925.4 -- 26
2020-07-14 19:00:00 30.4 6 Norte 21 Norte 0 925.5 -- 26
2020-07-14 18:00:00 31.1 6 Nordeste 21 Nordeste 0 925.8 -- 26
2020-07-14 17:00:00 30.7 5 Nordeste 19 Nordeste 0 926.5 -- 27
2020-07-14 16:00:00 29.5 5 Noroeste 20 Noroeste 0 927 -- 28
2020-07-14 15:00:00 28.9 8 Nordeste 21 Nordeste 0 927.8 -- 32
2020-07-14 14:00:00 27.2 6 Nordeste 26 Nordeste 0 928.5 -- 35
2020-07-14 13:00:00 25.8 9 Nordeste 20 Nordeste 0 928.9 -- 40
2020-07-14 12:00:00 23.3 7 Este 21 Este 0 929.4 -- 47
2020-07-14 11:00:00 21.3 8 Este 18 Este 0 930.1 -- 49
2020-07-14 10:00:00 18.5 6 Este 20 Sudeste 0 930.5 -- 52
2020-07-14 09:00:00 16.4 10 Nordeste 21 Este 0 930.7 -- 57
2020-07-14 08:00:00 15 5 Este 15 Este 0 930.8 -- 61
2020-07-14 07:00:00 15.3 7 Este 20 Este 0 931 -- 60
2020-07-14 06:00:00 15.9 8 Nordeste 19 Nordeste 0 930.8 -- 60
2020-07-14 05:00:00 16.2 6 Nordeste 17 Nordeste 0 930.9 -- 61
2020-07-14 04:00:00 17.5 6 Nordeste 19 Nordeste 0 931.1 -- 57
2020-07-14 03:00:00 18.5 9 Nordeste 18 Este 0 931.4 -- 55
2020-07-14 02:00:00 19.8 7 Nordeste 19 Este 0 931.6 -- 52
2020-07-14 01:00:00 21.5 10 Nordeste 20 Nordeste 0 931.7 -- 50
2020-07-14 00:00:00 23.5 10 Nordeste 19 Nordeste 0 931.3 -- 46
2020-07-13 23:00:00 25.6 8 Nordeste 19 Nordeste 0 930.8 -- 41
2020-07-13 22:00:00 28 10 Nordeste 23 Nordeste 0 930 0.4 37
2020-07-13 21:00:00 29.6 5 Nordeste 19 Nordeste 0 929.7 -0.3 34
2020-07-13 20:00:00 30.8 3 Norte 24 Oeste 0 929.5 -0.9 33
2020-07-13 19:00:00 31 9 Noroeste 26 Noroeste 0 929.6 -1.4 34
2020-07-13 18:00:00 31.9 5 Nordeste 26 Nordeste 0 930 -1.5 33
2020-07-13 17:00:00 31.6 8 Nordeste 20 Nordeste 0 930.4 -1.8 34
2020-07-13 16:00:00 29.5 6 Nordeste 19 Este 0 931 -1.4 36
2020-07-13 15:00:00 29.4 6 Nordeste 23 Nordeste 0 931.5 -1.3 38
2020-07-13 14:00:00 28.1 8 Este 21 Nordeste 0 932.2 -0.7 43
2020-07-13 13:00:00 26.4 6 Nordeste 21 Nordeste 0 932.4 -0.5 48
2020-07-13 12:00:00 24.2 6 Nordeste 18 Nordeste 0 932.8 0.1 57
2020-07-13 11:00:00 21.8 4 Nordeste 18 Nordeste 0 932.9 0.7 66
2020-07-13 10:00:00 19.8 6 Nordeste 20 Este 0 932.9 1.2 76
2020-07-13 09:00:00 17.7 5 Nordeste 17 Este 0 932.7 1.5 86
2020-07-13 08:00:00 16.1 4 Este 15 Nordeste 0 932.2 1.4 92
2020-07-13 07:00:00 16.2 6 Nordeste 11 Nordeste 0 931.7 -- 89
2020-07-13 06:00:00 16.5 5 Este 14 Nordeste 0 931.2 0.8 86
2020-07-13 05:00:00 17.2 7 Este 16 Nordeste 0 930.8 0.2 82
2020-07-13 04:00:00 18.1 4 Este 11 Norte 0 930.6 0.2 78
2020-07-13 03:00:00 18.5 4 Este 14 Nordeste 0 930.4 0.1 75
2020-07-13 02:00:00 19.5 4 Nordeste 15 Nordeste 0 930.6 0.7 69
2020-07-13 01:00:00 20.1 8 Nordeste 18 Nordeste 0 930.4 1.4 68
2020-07-13 00:00:00 21.1 5 Este 10 Nordeste 0 930.3 1.6 73
2020-07-12 23:00:00 22.4 4 Este 12 Este 0 929.9 1.7 74
2020-07-12 22:00:00 24.4 2 Este 6 Sudeste 0 929 0.6 64
2020-07-12 21:00:00 26.3 3 Sudeste 7 Sur 0 928.7 -0.1 55
2020-07-12 20:00:00 26.4 5 Sur 10 Sur 0 928.2 0.7 60
2020-07-12 19:00:00 24.7 4 Sur 14 Sur 0.1 928.4 0.5 68
2020-07-12 18:00:00 22.4 6 Este 31 Oeste 1.8 928.8 0.1 73
2020-07-12 17:00:00 28.4 7 Oeste 16 Oeste 0 927.5 -1.1 48
2020-07-12 16:00:00 28.4 6 Sudoeste 20 Sudoeste 0 927.9 -1 48
2020-07-12 15:00:00 26.9 3 Sur 10 Sudeste 0 928.7 -- 56
2020-07-12 14:00:00 26 6 Este 15 Nordeste 0 928.6 -0.1 60
2020-07-12 13:00:00 24.4 5 Nordeste 15 Este 0 928.9 -- 64
2020-07-12 12:00:00 24.2 9 Este 22 Este 0 928.7 -- 63
2020-07-12 11:00:00 23.2 7 Este 24 Este 0 928.7 -- 67
2020-07-12 10:00:00 21.4 9 Este 21 Este 0 928.6 -0.2 72
2020-07-12 09:00:00 20 7 Nordeste 21 Nordeste 0 928.9 -- 77
2020-07-12 08:00:00 18.4 6 Nordeste 19 Nordeste 0 928.9 -- 82
2020-07-12 07:00:00 18.1 6 Nordeste 13 Nordeste 0 928.8 -- 81
2020-07-12 06:00:00 19.7 5 Nordeste 15 Nordeste 0 928 -- 75
2020-07-12 05:00:00 19.4 0 Calma 10 Este 0 929.1 -- 74
2020-07-12 04:00:00 19.8 4 Este 16 Norte 0 928.4 -- 71
2020-07-12 03:00:00 20.5 0 Calma 23 Norte 0 928 -- 70
2020-07-12 02:00:00 20.2 9 Oeste 22 Oeste 0 928.7 -- 79
2020-07-12 01:00:00 20.4 8 Sudoeste 18 Sudoeste 0 928.4 -- 76
2020-07-12 00:00:00 21 5 Noroeste 21 Oeste 0 927.3 -- 74
2020-07-11 23:00:00 22.4 12 Oeste 49 Noroeste 0 927.3 -- 63
2020-07-11 22:00:00 28.4 6 Este 19 Este 0 924.5 -- 43
2020-07-11 21:00:00 31.1 8 Este 19 Este 0 925 -- 37
2020-07-11 20:00:00 33.7 7 Este 14 Este 0 924.7 -- 32
2020-07-11 19:00:00 33.9 6 Este 15 Este 0 925.3 -1.3 32
2020-07-11 18:00:00 34.6 5 Nordeste 17 Noroeste 0 925.8 -- 31
2020-07-11 17:00:00 33.1 4 Norte 17 Noroeste 0 926.2 -- 32
2020-07-11 16:00:00 32.6 6 Noroeste 18 Noroeste 0 926.6 -- 35
2020-07-11 15:00:00 32.1 5 Este 17 Este 0 927.2 -- 39
2020-07-11 14:00:00 29.8 8 Este 19 Sudeste 0 927.7 -- 44
2020-07-11 13:00:00 27.1 6 Nordeste 19 Este 0 928.2 -- 50
2020-07-11 12:00:00 24.9 7 Nordeste 18 Nordeste 0 928.5 -- 56
2020-07-11 11:00:00 22.4 5 Nordeste 18 Este 0 928.8 -- 66
2020-07-11 10:00:00 19.5 9 Este 19 Este 0 928.8 -- 73
2020-07-11 09:00:00 16.9 8 Nordeste 19 Nordeste 0 928.9 -- 80
2020-07-11 08:00:00 15.5 5 Este 18 Norte 0 928.8 -- 85
2020-07-11 07:00:00 15.4 4 Este 15 Nordeste 0 928.3 -- 84
2020-07-11 06:00:00 15.9 5 Este 14 Nordeste 0 928.2 -- 83
2020-07-11 05:00:00 16.6 9 Nordeste 20 Nordeste 0 927.9 -- 81
2020-07-11 04:00:00 17.7 5 Nordeste 18 Este 0 928 -- 76
2020-07-11 03:00:00 18.8 8 Nordeste 21 Nordeste 0 927.9 -- 71
2020-07-11 02:00:00 20 8 Nordeste 22 Nordeste 0 928 1.2 66
2020-07-11 01:00:00 22.3 6 Este 27 Nordeste 0 927.9 -- 59
2020-07-11 00:00:00 24.2 7 Nordeste 23 Nordeste 0 927.4 -- 53
2020-07-10 23:00:00 26.2 9 Nordeste 21 Este 0 926.8 -- 44
2020-07-10 22:00:00 28.2 4 Este 17 Nordeste 0 925.9 -- 39
2020-07-10 21:00:00 30.1 6 Nordeste 16 Este 0 925.6 -- 36
2020-07-10 20:00:00 31.8 5 Nordeste 15 Nordeste 0 925.7 -- 33
2020-07-10 19:00:00 32.3 5 Nordeste 22 Nordeste 0 925.7 -- 33
2020-07-10 18:00:00 31.5 5 Norte 18 Nordeste 0 925.8 -- 35
2020-07-10 17:00:00 32.1 6 Norte 21 Nordeste 0 926.2 -- 36
2020-07-10 16:00:00 31.5 10 Nordeste 27 Nordeste 0 926.6 -- 37
2020-07-10 15:00:00 30.3 3 Norte 22 Este 0 927.2 -- 39
2020-07-10 14:00:00 29.8 6 Este 23 Este 0 927.6 -0.4 42
2020-07-10 13:00:00 27.7 8 Este 20 Este 0 927.9 -- 47
2020-07-10 12:00:00 26.3 8 Este 17 Este 0 928.1 -- 49
2020-07-10 11:00:00 24 3 Este 15 Nordeste 0 928 -0.3 60
2020-07-10 10:00:00 21.3 5 Este 12 Este 0 928.3 -- 69
2020-07-10 09:00:00 18.4 4 Este 11 Nordeste 0 928.3 -- 77
2020-07-10 08:00:00 17.4 6 Nordeste 15 Nordeste 0 928.3 -- 80
2020-07-10 07:00:00 17.4 4 Este 10 Este 0 927.8 -- 80
2020-07-10 06:00:00 18.4 4 Este 8 Este 0 927.8 -- 73
2020-07-10 05:00:00 19.1 2 Este 16 Nordeste 0 927.9 -- 69
2020-07-10 04:00:00 20.2 6 Este 16 Nordeste 0 927.8 -- 63
2020-07-10 03:00:00 22.9 3 Norte 16 Nordeste 0 927.9 -- 52
2020-07-10 02:00:00 24.4 0 Calma 15 Nordeste 0 928.2 -- 45
2020-07-10 01:00:00 24.9 5 Nordeste 9 Nordeste 0 928.1 -- 45
2020-07-10 00:00:00 25 4 Este 12 Este 0 928.3 -- 45
2020-07-09 23:00:00 25.3 2 Nordeste 21 Sudeste 0 927.4 -- 44
2020-07-09 22:00:00 26.7 9 Este 33 Nordeste 0 927 -- 40
2020-07-09 21:00:00 27.9 15 Nordeste 39 Nordeste 0 927.1 -- 36
2020-07-09 20:00:00 30.8 6 Oeste 19 Oeste 0 925.5 -- 34
2020-07-09 19:00:00 32.9 5 Oeste 19 Sudoeste 0 925.3 -- 29
2020-07-09 18:00:00 33.6 6 Sudoeste 18 Sudoeste 0 926.1 -- 28
2020-07-09 17:00:00 33.5 4 Sudoeste 22 Sudoeste 0 926.8 -- 28
2020-07-09 16:00:00 33 5 Sur 17 Nordeste 0 927.4 -- 29
2020-07-09 15:00:00 31.8 8 Oeste 17 Oeste 0 927.8 -- 32
2020-07-09 14:00:00 30.3 4 Sudoeste 15 Oeste 0 928.3 -- 37
2020-07-09 13:00:00 29.1 6 Sudoeste 18 Oeste 0 928.5 -- 41
2020-07-09 12:00:00 27 3 Oeste 18 Oeste 0 928.7 -- 47
2020-07-09 11:00:00 25 5 Oeste 14 Noroeste 0 928.7 -- 51
2020-07-09 10:00:00 22.3 4 Sudeste 10 Este 0 928.5 -- 62
2020-07-09 09:00:00 18.9 0 Calma 8 Este 0 928.1 -- 70
2020-07-09 08:00:00 17.5 0 Calma 8 Nordeste 0 927.5 -- 72
2020-07-09 07:00:00 17.7 0 Calma 7 Sudoeste 0 926.9 -- 72
2020-07-09 06:00:00 18 4 Este 10 Este 0 926 -- 69
2020-07-09 05:00:00 18.8 7 Este 13 Nordeste 0 925.7 -- 64
2020-07-09 04:00:00 20.3 8 Este 18 Este 0 925.7 -- 58
2020-07-09 03:00:00 20.8 3 Este 27 Este 0 926 -- 54
2020-07-09 02:00:00 22.7 13 Nordeste 29 Nordeste 0 926.2 -- 50
2020-07-09 01:00:00 22.9 13 Nordeste 24 Este 0 926.2 -- 50
2020-07-09 00:00:00 24 3 Nordeste 22 Nordeste 0 926.2 -- 47
2020-07-08 23:00:00 26.1 9 Nordeste 24 Nordeste 0 925.1 -- 41
2020-07-08 22:00:00 28.4 3 Noroeste 21 Sur 0 924.2 -- 35
2020-07-08 21:00:00 30.8 10 Sur 30 Sur 0 922.9 -- 34
2020-07-08 20:00:00 32.1 10 Sur 37 Sur 0 922.4 -- 33
2020-07-08 19:00:00 32.9 9 Sudoeste 21 Sudeste 0 922.2 -- 31
2020-07-08 18:00:00 35.3 10 Sudeste 31 Sur 0 922.5 -- 27
2020-07-08 17:00:00 35.8 11 Sur 35 Sudeste 0 923.1 -- 29
2020-07-08 16:00:00 35.9 6 Sudeste 28 Sudeste 0 923.2 -- 29
2020-07-08 15:00:00 35.6 10 Sudeste 26 Sur 0 923.3 -- 27
2020-07-08 14:00:00 33.8 9 Este 33 Nordeste 0 923.6 -- 32
2020-07-08 13:00:00 33.1 10 Nordeste 23 Nordeste 0 924.1 -- 34
2020-07-08 12:00:00 30.8 6 Este 14 Este 0 924.8 -- 41
2020-07-08 11:00:00 28 4 Nordeste 11 Nordeste 0 925.2 -- 44
2020-07-08 10:00:00 25 4 Este 12 Este 0 925.1 -- 49
2020-07-08 09:00:00 21.3 0 Calma 9 Oeste 0 924.8 -- 60
2020-07-08 08:00:00 20.1 0 Calma 6 Este 0 924.9 -- 64
2020-07-08 07:00:00 20.7 0 Calma 9 Este 0 924.5 -- 63
2020-07-08 06:00:00 21.6 0 Calma 8 Oeste 0 924.4 -- 55
2020-07-08 05:00:00 21.8 3 Sudoeste 12 Nordeste 0 924.5 -- 55
2020-07-08 04:00:00 21.6 3 Este 10 Este 0 925.5 -- 55
2020-07-08 03:00:00 21.9 5 Este 9 Sudeste 0 925.8 -- 56
2020-07-08 02:00:00 22.7 5 Este 8 Este 0 926.2 -- 55
2020-07-08 01:00:00 23.1 6 Este 8 Este 0 926.2 -- 52
2020-07-08 00:00:00 25.3 0 Calma 4 Nordeste 0 926.3 -- 43